Time;durP1;ratioP1;P1;durP2;ratioP2;P2;SDS_P1;SDS_P2;PMS_P1;PMS_P2;Temp;Humidity;BMP_temperature;BMP_pressure;BME280_temperature;BME280_humidity;BME280_pressure;Samples;Min_cycle;Max_cycle;Signal;HPM_P1;HPM_P2
2022/07/12 00:01:04;;;;;;;7.17;6.50;;;16.80;99.90;;;;;;4973175;28;20278;-70
2022/07/12 00:03:30;;;;;;;7.93;7.27;;;16.70;99.90;;;;;;4973840;28;20944;-70
2022/07/12 00:05:56;;;;;;;7.30;6.70;;;16.70;99.90;;;;;;4974552;28;20212;-65
2022/07/12 00:08:22;;;;;;;6.67;6.17;;;16.60;99.90;;;;;;4972492;28;20180;-69
2022/07/12 00:10:48;;;;;;;8.43;7.77;;;16.60;99.90;;;;;;4973243;28;20212;-69
2022/07/12 00:13:13;;;;;;;7.00;6.40;;;16.50;99.90;;;;;;4974294;28;20498;-70
2022/07/12 00:15:39;;;;;;;6.80;6.30;;;16.50;99.90;;;;;;4974232;28;20184;-69
2022/07/12 00:18:04;;;;;;;7.50;6.90;;;16.40;99.90;;;;;;4975011;28;20211;-66
2022/07/12 00:20:30;;;;;;;7.77;6.40;;;16.30;99.90;;;;;;4973195;28;20203;-69
2022/07/12 00:22:55;;;;;;;7.40;6.80;;;16.40;99.90;;;;;;4974928;28;20200;-70
2022/07/12 00:25:21;;;;;;;7.00;6.40;;;16.30;99.90;;;;;;4972892;28;20215;-67
2022/07/12 00:27:46;;;;;;;6.43;5.93;;;16.30;99.90;;;;;;4974154;28;20194;-70
2022/07/12 00:30:12;;;;;;;6.97;6.33;;;16.20;99.90;;;;;;4972840;28;20204;-67
2022/07/12 00:32:38;;;;;;;7.10;6.40;;;16.20;99.90;;;;;;4974056;28;20323;-69
2022/07/12 00:35:05;;;;;;;5.63;5.23;;;16.20;99.90;;;;;;4956475;28;20605;-69
2022/07/12 00:37:31;;;;;;;6.87;6.37;;;16.20;99.90;;;;;;4973593;28;20708;-70
2022/07/12 00:39:57;;;;;;;7.37;6.87;;;16.10;99.90;;;;;;4973620;28;20436;-69
2022/07/12 00:42:23;;;;;;;7.43;5.77;;;16.10;99.90;;;;;;4976314;28;20836;-69
2022/07/12 00:44:48;;;;;;;6.80;6.30;;;16.10;99.90;;;;;;4975378;28;20179;-68
2022/07/12 00:47:40;;;;;;;7.30;6.57;;;16.10;99.90;;;;;;4976436;28;20526;-70
2022/07/12 00:50:14;;;;;;;6.80;6.30;;;15.90;99.90;;;;;;4957641;28;20194;-70
2022/07/12 00:52:40;;;;;;;7.30;6.70;;;15.90;99.90;;;;;;4974434;28;20475;-69
2022/07/12 00:55:07;;;;;;;6.80;6.20;;;15.90;99.90;;;;;;4976455;28;20448;-69
2022/07/12 00:57:34;;;;;;;7.03;6.53;;;15.80;99.90;;;;;;4975809;28;20454;-69
2022/07/12 01:00:01;;;;;;;6.67;6.03;;;15.80;99.90;;;;;;4974496;28;20976;-68
2022/07/12 01:02:28;;;;;;;6.33;5.93;;;15.80;99.90;;;;;;4974560;28;20478;-68
2022/07/12 01:04:55;;;;;;;6.57;6.00;;;15.90;99.90;;;;;;4975608;28;20807;-70
2022/07/12 01:07:23;;;;;;;6.67;6.17;;;15.90;99.90;;;;;;4959042;28;20441;-68
2022/07/12 01:09:49;;;;;;;7.37;6.67;;;15.90;99.90;;;;;;4976474;28;20507;-69
2022/07/12 01:12:15;;;;;;;6.20;5.80;;;15.80;99.90;;;;;;4973289;28;20514;-70
2022/07/12 01:14:40;;;;;;;6.20;5.70;;;15.80;99.90;;;;;;4972526;28;20188;-70
2022/07/12 01:17:07;;;;;;;5.57;5.17;;;15.80;99.90;;;;;;4972499;28;20184;-69
2022/07/12 01:19:33;;;;;;;6.90;6.33;;;15.70;99.90;;;;;;4972490;28;20744;-69
2022/07/12 01:22:01;;;;;;;6.10;5.60;;;15.80;99.90;;;;;;4973333;28;20903;-70
2022/07/12 01:24:27;;;;;;;5.97;5.47;;;15.70;99.90;;;;;;4975880;28;20448;-70
2022/07/12 01:26:53;;;;;;;5.97;5.37;;;15.70;99.90;;;;;;4967961;28;20435;-69
2022/07/12 01:29:19;;;;;;;6.33;5.83;;;15.70;99.90;;;;;;4976707;28;20255;-70
2022/07/12 01:31:45;;;;;;;5.67;5.17;;;15.70;99.90;;;;;;4975296;28;20491;-69
2022/07/12 01:34:11;;;;;;;5.70;5.30;;;15.70;99.90;;;;;;4974619;28;20479;-68
2022/07/12 01:36:37;;;;;;;5.93;5.40;;;15.70;99.90;;;;;;4973914;28;20823;-69
2022/07/12 01:39:04;;;;;;;6.57;5.97;;;15.70;99.90;;;;;;4970906;28;20701;-70
2022/07/12 01:41:31;;;;;;;6.20;5.70;;;15.70;99.90;;;;;;4971757;28;20463;-69
2022/07/12 01:43:56;;;;;;;6.77;6.33;;;15.70;99.90;;;;;;4971439;28;20447;-70
2022/07/12 01:46:22;;;;;;;6.67;6.17;;;15.60;99.90;;;;;;4972815;28;20435;-69
2022/07/12 01:48:47;;;;;;;5.60;5.17;;;15.70;99.90;;;;;;4972147;28;20238;-70
2022/07/12 01:51:13;;;;;;;6.30;5.77;;;15.70;99.90;;;;;;4972490;28;20347;-70
2022/07/12 01:53:39;;;;;;;4.90;4.50;;;15.70;99.90;;;;;;4972423;28;20180;-69
2022/07/12 01:56:04;;;;;;;6.60;6.07;;;15.70;99.90;;;;;;4972000;28;20191;-70
2022/07/12 01:58:30;;;;;;;5.60;5.20;;;15.70;99.90;;;;;;4973029;28;20180;-69
2022/07/12 02:00:57;;;;;;;7.40;5.40;;;15.60;99.90;;;;;;4954892;28;20199;-70
2022/07/12 02:03:23;;;;;;;5.70;5.30;;;15.50;99.90;;;;;;4973272;28;20187;-70
2022/07/12 02:05:48;;;;;;;5.80;5.30;;;15.50;99.90;;;;;;4971673;28;20436;-69
2022/07/12 02:08:14;;;;;;;6.03;5.60;;;15.50;99.90;;;;;;4971804;28;20211;-69
2022/07/12 02:10:40;;;;;;;6.70;6.20;;;15.40;99.90;;;;;;4971271;28;20743;-70
2022/07/12 02:13:06;;;;;;;5.33;4.93;;;15.40;99.90;;;;;;4970442;28;20239;-68
2022/07/12 02:15:32;;;;;;;6.63;6.03;;;15.40;99.90;;;;;;4972756;28;20452;-70
2022/07/12 02:17:57;;;;;;;5.93;5.47;;;15.40;99.90;;;;;;4972430;28;20267;-69
2022/07/12 02:20:23;;;;;;;6.07;5.17;;;15.40;99.90;;;;;;4970179;28;20704;-69
2022/07/12 02:22:49;;;;;;;5.47;5.00;;;15.40;99.90;;;;;;4971293;28;20471;-68
2022/07/12 02:25:14;;;;;;;5.40;4.90;;;15.40;99.90;;;;;;4971422;28;20192;-69
2022/07/12 02:27:40;;;;;;;5.90;5.50;;;15.40;99.90;;;;;;4971352;28;20247;-70
2022/07/12 02:30:07;;;;;;;6.33;5.83;;;15.40;99.90;;;;;;4971091;28;20695;-69
2022/07/12 02:32:33;;;;;;;5.20;4.80;;;15.40;99.90;;;;;;4970970;28;20208;-67
2022/07/12 02:34:58;;;;;;;4.90;4.43;;;15.40;99.90;;;;;;4972170;28;20563;-69
2022/07/12 02:37:24;;;;;;;8.20;7.40;;;15.30;99.90;;;;;;4971834;28;20188;-68
2022/07/12 02:39:50;;;;;;;5.73;5.23;;;15.20;99.90;;;;;;4970735;28;20565;-70
2022/07/12 02:42:15;;;;;;;6.03;5.63;;;15.20;99.90;;;;;;4971672;28;20541;-70
2022/07/12 02:44:41;;;;;;;5.00;4.60;;;15.20;99.90;;;;;;4971501;28;20192;-70
2022/07/12 02:47:07;;;;;;;4.90;4.60;;;15.20;99.90;;;;;;4971598;28;20190;-70
2022/07/12 02:49:32;;;;;;;4.93;4.40;;;15.20;99.90;;;;;;4972227;28;20176;-70
2022/07/12 02:51:58;;;;;;;5.37;4.97;;;15.20;99.90;;;;;;4976009;28;20219;-69
2022/07/12 02:54:24;;;;;;;5.90;5.40;;;15.10;99.90;;;;;;4976583;28;20709;-69
2022/07/12 02:56:49;;;;;;;5.00;4.60;;;15.20;99.90;;;;;;4959023;28;20180;-69
2022/07/12 02:59:15;;;;;;;6.67;4.20;;;15.10;99.90;;;;;;4957899;28;20311;-68
2022/07/12 03:01:41;;;;;;;5.13;4.60;;;15.10;99.90;;;;;;4958077;28;20767;-69
2022/07/12 03:04:06;;;;;;;5.20;4.70;;;15.10;99.90;;;;;;4976159;28;20454;-68
2022/07/12 03:06:32;;;;;;;4.13;3.83;;;14.90;99.90;;;;;;4976180;28;20196;-69
2022/07/12 03:08:57;;;;;;;4.87;4.47;;;15.00;99.90;;;;;;4975635;28;20184;-69
2022/07/12 03:11:23;;;;;;;4.73;4.37;;;15.00;99.90;;;;;;4976026;28;20204;-68
2022/07/12 03:13:48;;;;;;;5.50;5.10;;;15.00;99.90;;;;;;4974618;28;20192;-70
2022/07/12 03:16:14;;;;;;;4.90;4.50;;;15.00;99.90;;;;;;4976308;28;20184;-69
2022/07/12 03:18:40;;;;;;;5.53;5.13;;;15.00;99.90;;;;;;4974682;28;20612;-70
2022/07/12 03:21:06;;;;;;;4.73;4.20;;;14.90;99.90;;;;;;4977279;28;20209;-67
2022/07/12 03:23:31;;;;;;;5.13;4.63;;;15.00;99.90;;;;;;4972436;28;20450;-70
2022/07/12 03:25:57;;;;;;;5.33;4.93;;;14.90;99.90;;;;;;4975794;28;20209;-69
2022/07/12 03:28:23;;;;;;;5.47;4.97;;;15.00;99.90;;;;;;4975888;28;20215;-68
2022/07/12 03:30:48;;;;;;;5.93;3.97;;;15.00;99.90;;;;;;4958402;28;20296;-70
2022/07/12 03:33:14;;;;;;;5.43;4.93;;;15.00;99.90;;;;;;4977042;28;20204;-69
2022/07/12 03:35:40;;;;;;;6.23;4.53;;;15.00;99.90;;;;;;4975648;28;20192;-69
2022/07/12 03:38:05;;;;;;;7.07;6.57;;;14.90;99.90;;;;;;4976479;28;20219;-68
2022/07/12 03:40:34;;;;;;;5.37;4.97;;;14.90;99.90;;;;;;4975991;28;20431;-70
2022/07/12 03:43:00;;;;;;;6.80;5.13;;;14.90;99.90;;;;;;4974204;28;20203;-70
2022/07/12 03:45:25;;;;;;;4.17;3.87;;;14.90;99.90;;;;;;4977116;28;20439;-69
2022/07/12 03:47:51;;;;;;;5.23;4.90;;;14.90;99.90;;;;;;4976515;28;20452;-70
2022/07/12 03:50:16;;;;;;;5.17;4.77;;;15.00;99.90;;;;;;4976954;28;20646;-69
2022/07/12 03:52:43;;;;;;;5.20;4.80;;;14.90;99.90;;;;;;4974252;28;20207;-66
2022/07/12 03:55:10;;;;;;;4.23;3.93;;;15.10;99.90;;;;;;4973993;28;20183;-66
2022/07/12 03:57:36;;;;;;;4.83;4.43;;;15.10;99.90;;;;;;4956635;28;20913;-70
2022/07/12 04:00:04;;;;;;;4.20;3.90;;;15.10;99.90;;;;;;4971704;28;20975;-68
2022/07/12 04:02:30;;;;;;;4.67;4.37;;;15.20;99.90;;;;;;4972935;28;20546;-68
2022/07/12 04:04:55;;;;;;;5.60;5.10;;;15.20;99.90;;;;;;4972968;28;20526;-69
2022/07/12 04:07:21;;;;;;;5.33;4.93;;;15.20;99.90;;;;;;4975639;28;20191;-69
2022/07/12 04:09:47;;;;;;;6.20;5.70;;;15.30;99.90;;;;;;4972605;28;20187;-71
2022/07/12 04:12:12;;;;;;;5.60;5.10;;;15.30;99.90;;;;;;4973537;28;20465;-69
2022/07/12 04:14:38;;;;;;;5.30;4.80;;;15.20;99.90;;;;;;4973134;28;20195;-69
2022/07/12 04:17:05;;;;;;;5.53;5.13;;;15.20;99.90;;;;;;4973854;28;20180;-69
2022/07/12 04:19:31;;;;;;;5.57;5.10;;;15.10;99.90;;;;;;4972763;28;20642;-68
2022/07/12 04:21:57;;;;;;;5.37;4.97;;;15.10;99.90;;;;;;4973495;28;20530;-68
2022/07/12 04:24:23;;;;;;;5.60;5.20;;;15.20;99.90;;;;;;4974630;28;20494;-69
2022/07/12 04:26:48;;;;;;;6.70;6.10;;;15.30;99.90;;;;;;4973098;28;20840;-67
2022/07/12 04:29:15;;;;;;;12.83;7.80;;;15.30;99.90;;;;;;4973811;28;20219;-69
2022/07/12 04:31:41;;;;;;;6.23;5.77;;;15.30;99.90;;;;;;4973774;28;20291;-70
2022/07/12 04:34:06;;;;;;;7.33;6.70;;;15.30;99.90;;;;;;4973182;28;20523;-69
2022/07/12 04:36:32;;;;;;;5.60;5.07;;;15.30;99.90;;;;;;4972863;28;20202;-70
2022/07/12 04:38:58;;;;;;;5.50;5.10;;;15.40;99.90;;;;;;4974082;28;20198;-69
2022/07/12 04:41:23;;;;;;;6.20;5.80;;;15.50;99.90;;;;;;4974761;28;21051;-69
2022/07/12 04:43:49;;;;;;;7.07;6.00;;;15.70;99.90;;;;;;4957492;28;20173;-69
2022/07/12 04:46:15;;;;;;;5.90;5.50;;;15.90;99.90;;;;;;4974809;28;20223;-69
2022/07/12 04:48:40;;;;;;;5.57;5.07;;;15.90;99.90;;;;;;4974094;28;20165;-70
2022/07/12 04:51:06;;;;;;;5.80;5.27;;;16.10;99.90;;;;;;4974509;28;20983;-70
2022/07/12 04:53:31;;;;;;;5.83;5.20;;;16.20;99.90;;;;;;4974693;28;20230;-70
2022/07/12 04:55:57;;;;;;;5.40;5.00;;;16.30;99.90;;;;;;4974599;28;20169;-70
2022/07/12 04:58:23;;;;;;;5.43;5.03;;;16.40;99.90;;;;;;4973912;28;20606;-70
2022/07/12 05:00:49;;;;;;;5.67;5.27;;;16.50;99.90;;;;;;4974515;28;20195;-70
2022/07/12 05:03:15;;;;;;;4.60;4.30;;;16.60;99.90;;;;;;4974550;28;20788;-70
2022/07/12 05:05:41;;;;;;;6.63;5.57;;;16.70;99.90;;;;;;4974465;28;20422;-70
2022/07/12 05:08:06;;;;;;;4.77;4.37;;;16.80;99.90;;;;;;4974225;28;20176;-70
2022/07/12 05:10:32;;;;;;;5.17;4.77;;;17.00;99.90;;;;;;4973640;28;20207;-70
2022/07/12 05:12:57;;;;;;;5.00;4.70;;;17.20;99.90;;;;;;4973712;28;20172;-70
2022/07/12 05:15:23;;;;;;;6.10;5.70;;;17.20;99.90;;;;;;4974365;28;20173;-70
2022/07/12 05:17:48;;;;;;;6.07;5.63;;;17.40;99.90;;;;;;4974335;28;20545;-70
2022/07/12 05:20:14;;;;;;;5.13;4.73;;;17.50;99.90;;;;;;4973689;28;20180;-70
2022/07/12 05:22:41;;;;;;;5.53;5.13;;;17.70;99.90;;;;;;4974152;28;20206;-70
2022/07/12 05:25:08;;;;;;;7.17;6.57;;;17.90;99.90;;;;;;4974205;28;20619;-70
2022/07/12 05:27:34;;;;;;;4.60;4.30;;;18.00;99.90;;;;;;4974262;28;20447;-70
2022/07/12 05:30:00;;;;;;;6.93;5.17;;;18.20;99.90;;;;;;4973419;28;20423;-70
2022/07/12 05:32:25;;;;;;;5.13;4.73;;;18.40;99.90;;;;;;4974029;28;20486;-70
2022/07/12 05:34:51;;;;;;;5.30;4.90;;;18.50;99.90;;;;;;4974077;28;20179;-70
2022/07/12 05:37:16;;;;;;;5.20;4.87;;;18.50;99.90;;;;;;4973801;28;20532;-70
2022/07/12 05:39:42;;;;;;;5.13;4.73;;;18.60;99.90;;;;;;4973132;28;20175;-70
2022/07/12 05:42:07;;;;;;;5.00;4.60;;;18.70;99.90;;;;;;4956298;28;20215;-70
2022/07/12 05:44:33;;;;;;;6.67;5.47;;;18.90;99.90;;;;;;4973626;28;20165;-70
2022/07/12 05:46:58;;;;;;;5.83;5.33;;;19.00;99.90;;;;;;4973820;28;20176;-70
2022/07/12 05:49:24;;;;;;;4.83;4.43;;;19.10;99.90;;;;;;4973031;28;20183;-70
2022/07/12 05:54:33;;;;;;;5.03;4.73;;;19.30;99.90;;;;;;4973731;28;20601;-70
2022/07/12 05:56:59;;;;;;;4.90;4.50;;;19.50;99.90;;;;;;4973545;28;20507;-70
2022/07/12 05:59:24;;;;;;;4.90;4.50;;;19.70;99.90;;;;;;4972850;28;20263;-70
2022/07/12 06:01:50;;;;;;;4.70;4.23;;;19.80;99.90;;;;;;4973448;28;20339;-70
2022/07/12 06:04:15;;;;;;;4.80;4.30;;;19.80;99.90;;;;;;4973452;28;20347;-70
2022/07/12 06:06:41;;;;;;;4.40;4.00;;;20.00;99.90;;;;;;4973423;28;20649;-70
2022/07/12 06:09:06;;;;;;;7.93;7.10;;;20.10;99.90;;;;;;4972746;28;20180;-72
2022/07/12 06:11:33;;;;;;;4.87;4.47;;;20.30;99.90;;;;;;4973327;28;20204;-72
2022/07/12 06:13:59;;;;;;;4.20;3.90;;;20.50;99.90;;;;;;4973333;28;20168;-72
2022/07/12 06:16:25;;;;;;;4.27;3.97;;;20.60;99.90;;;;;;4973359;28;20424;-72
2022/07/12 06:18:50;;;;;;;4.57;4.17;;;20.70;99.90;;;;;;4961026;28;20438;-71
2022/07/12 06:21:16;;;;;;;3.40;3.20;;;20.70;99.90;;;;;;4945335;28;20219;-71
2022/07/12 06:23:41;;;;;;;4.53;4.13;;;20.80;99.90;;;;;;4967997;28;20211;-71
2022/07/12 06:26:07;;;;;;;4.47;4.17;;;20.90;99.90;;;;;;4972989;28;20175;-64
2022/07/12 06:28:32;;;;;;;4.30;3.90;;;20.90;99.90;;;;;;4969912;28;20214;-66
2022/07/12 06:30:58;;;;;;;4.03;3.73;;;21.10;99.90;;;;;;4972021;28;20683;-64
2022/07/12 06:33:23;;;;;;;4.60;4.00;;;21.20;99.90;;;;;;4973070;28;20582;-65
2022/07/12 06:35:49;;;;;;;4.90;3.90;;;21.40;99.90;;;;;;4973017;28;20176;-64
2022/07/12 06:38:15;;;;;;;4.27;3.90;;;21.50;99.90;;;;;;4972314;28;20192;-65
2022/07/12 06:40:41;;;;;;;4.40;4.10;;;21.60;99.90;;;;;;4969560;28;20279;-65
2022/07/12 06:43:11;;;;;;;3.80;3.50;;;21.80;99.90;;;;;;4972878;28;20601;-64
2022/07/12 06:45:37;;;;;;;5.93;3.70;;;22.00;99.90;;;;;;4973124;28;20195;-65
2022/07/12 06:48:04;;;;;;;3.57;3.33;;;22.10;99.90;;;;;;4963868;28;20922;-67
2022/07/12 06:50:30;;;;;;;3.53;3.23;;;22.00;99.90;;;;;;4963028;28;20262;-65
2022/07/12 06:52:56;;;;;;;3.00;2.80;;;22.10;99.90;;;;;;4945595;28;20854;-64
2022/07/12 06:55:22;;;;;;;3.23;2.93;;;21.90;99.90;;;;;;4963349;28;20173;-65
2022/07/12 06:57:47;;;;;;;3.33;3.03;;;22.10;99.90;;;;;;4962966;28;20446;-65
2022/07/12 07:00:13;;;;;;;2.70;2.50;;;22.30;99.90;;;;;;4960401;28;20173;-65
2022/07/12 07:02:39;;;;;;;2.43;2.10;;;22.60;99.90;;;;;;4961714;28;20192;-64
2022/07/12 07:05:06;;;;;;;2.77;2.57;;;22.90;99.90;;;;;;4963084;28;20167;-64
2022/07/12 07:07:31;;;;;;;2.80;2.60;;;22.90;99.90;;;;;;4955253;28;20423;-64
2022/07/12 07:09:57;;;;;;;2.73;2.53;;;22.90;99.90;;;;;;4961496;28;20420;-65
2022/07/12 07:12:22;;;;;;;2.30;2.00;;;23.10;99.90;;;;;;4972136;28;20239;-65
2022/07/12 07:14:48;;;;;;;4.90;1.67;;;23.40;99.90;;;;;;4971687;28;20176;-65
2022/07/12 07:17:16;;;;;;;1.93;1.83;;;23.70;99.90;;;;;;4971842;28;20227;-64
2022/07/12 07:19:42;;;;;;;2.07;1.77;;;23.90;99.90;;;;;;4977067;28;20422;-65
2022/07/12 07:22:07;;;;;;;4.00;1.90;;;24.10;99.90;;;;;;4980283;28;20522;-65
2022/07/12 07:24:33;;;;;;;1.83;1.73;;;24.20;99.90;;;;;;4972628;28;20581;-65
2022/07/12 07:26:58;;;;;;;5.30;4.90;;;24.10;99.90;;;;;;4971964;28;20180;-65
2022/07/12 07:32:08;;;;;;;3.43;2.30;;;24.10;99.90;;;;;;4971630;28;20235;-65
2022/07/12 07:34:34;;;;;;;2.57;2.37;;;24.50;99.90;;;;;;4982432;28;20462;-65
2022/07/12 07:36:59;;;;;;;2.33;2.10;;;24.70;98.80;;;;;;4973062;28;20184;-65
2022/07/12 07:39:25;;;;;;;2.40;2.30;;;25.00;98.10;;;;;;4960018;28;20600;-66
2022/07/12 07:41:50;;;;;;;2.63;2.30;;;25.20;97.70;;;;;;4970342;28;20200;-64
2022/07/12 07:44:16;;;;;;;4.80;2.10;;;25.40;97.10;;;;;;4955354;28;20659;-66
2022/07/12 07:46:41;;;;;;;2.10;2.00;;;25.50;96.10;;;;;;4988174;28;20227;-67
2022/07/12 07:49:07;;;;;;;1.93;1.77;;;25.80;95.10;;;;;;4970069;28;20241;-65
2022/07/12 07:51:32;;;;;;;1.80;1.70;;;25.90;93.20;;;;;;4963819;28;20247;-66
2022/07/12 07:53:58;;;;;;;1.60;1.50;;;25.70;93.30;;;;;;4967129;28;20196;-67
2022/07/12 07:56:23;;;;;;;1.70;1.60;;;25.80;93.30;;;;;;4960074;28;20180;-65
2022/07/12 07:58:51;;;;;;;2.13;1.97;;;26.10;91.90;;;;;;4970848;28;20194;-66
2022/07/12 08:01:16;;;;;;;2.80;1.70;;;26.40;91.50;;;;;;4963596;28;20615;-66
2022/07/12 08:03:42;;;;;;;1.80;1.67;;;26.40;90.60;;;;;;4971564;28;20419;-66
2022/07/12 08:06:07;;;;;;;1.70;1.60;;;26.40;90.60;;;;;;4971300;28;20204;-65
2022/07/12 08:08:33;;;;;;;1.57;1.47;;;26.50;89.20;;;;;;4968450;28;20191;-67
2022/07/12 08:10:59;;;;;;;2.37;1.60;;;26.50;89.20;;;;;;4954295;28;21067;-66
2022/07/12 08:13:24;;;;;;;1.77;1.67;;;26.50;89.00;;;;;;4968665;28;20227;-65
2022/07/12 08:15:50;;;;;;;1.40;1.30;;;26.70;89.30;;;;;;4971850;28;20175;-68
2022/07/12 08:18:15;;;;;;;3.53;2.10;;;27.00;86.50;;;;;;4970756;28;20187;-66
2022/07/12 08:20:41;;;;;;;3.07;1.30;;;27.20;86.30;;;;;;4971038;28;20629;-65
2022/07/12 08:23:07;;;;;;;2.33;2.10;;;27.10;85.20;;;;;;4971848;28;20211;-66
2022/07/12 08:25:33;;;;;;;1.50;1.40;;;27.10;85.20;;;;;;4971252;28;20176;-68
2022/07/12 08:27:58;;;;;;;3.13;2.93;;;27.10;85.00;;;;;;4971890;28;20424;-65
2022/07/12 08:30:24;;;;;;;3.60;1.40;;;27.00;85.40;;;;;;4966554;28;20179;-66
2022/07/12 08:32:49;;;;;;;1.67;1.50;;;26.90;85.20;;;;;;4971320;28;20220;-68
2022/07/12 08:35:15;;;;;;;2.63;1.33;;;26.90;85.70;;;;;;4989573;28;20343;-65
2022/07/12 08:37:41;;;;;;;2.47;1.20;;;27.30;84.40;;;;;;4978386;28;21021;-66
2022/07/12 08:40:08;;;;;;;0.97;0.90;;;27.50;83.80;;;;;;4967842;28;20183;-65
2022/07/12 08:42:34;;;;;;;2.10;1.13;;;27.40;81.40;;;;;;4970576;28;20459;-67
2022/07/12 08:45:00;;;;;;;1.20;1.10;;;27.20;82.10;;;;;;4971384;28;20458;-65
2022/07/12 08:47:26;;;;;;;1.50;1.10;;;27.30;81.70;;;;;;4971543;28;20420;-66
2022/07/12 08:50:10;;;;;;;1.40;1.30;;;27.20;81.20;;;;;;4965935;28;20650;-66
2022/07/12 08:52:39;;;;;;;1.10;1.00;;;27.60;82.30;;;;;;4967615;28;20216;-66
2022/07/12 08:55:25;;;;;;;1.50;1.07;;;28.00;79.90;;;;;;4956103;28;20459;-65
2022/07/12 08:57:54;;;;;;;1.40;1.30;;;28.00;79.30;;;;;;4967636;28;20440;-66
2022/07/12 09:00:20;;;;;;;1.43;1.33;;;28.00;78.40;;;;;;4966437;28;20447;-66
2022/07/12 09:03:07;;;;;;;1.20;1.10;;;28.30;78.50;;;;;;4964230;28;20480;-66
2022/07/12 09:05:34;;;;;;;1.53;1.43;;;28.80;77.80;;;;;;4972858;28;21054;-66
2022/07/12 09:08:07;;;;;;;1.37;1.33;;;28.80;75.40;;;;;;4970071;28;20590;-66
2022/07/12 09:10:54;;;;;;;1.20;1.10;;;28.80;74.50;;;;;;4966047;28;20427;-67
2022/07/12 09:13:20;;;;;;;1.50;1.37;;;28.30;75.10;;;;;;4969523;28;20435;-65
2022/07/12 09:15:50;;;;;;;1.30;1.20;;;28.40;76.70;;;;;;4971019;28;20862;-65
2022/07/12 09:18:17;;;;;;;1.90;1.80;;;28.60;76.00;;;;;;4973038;28;20431;-66
2022/07/12 09:20:51;;;;;;;1.70;1.60;;;28.50;75.50;;;;;;4983867;28;20589;-66
2022/07/12 09:23:17;;;;;;;1.80;1.70;;;28.40;75.50;;;;;;4968785;28;20475;-65
2022/07/12 09:25:47;;;;;;;1.40;1.30;;;28.60;75.20;;;;;;4970543;28;20470;-67
2022/07/12 09:28:13;;;;;;;3.73;1.40;;;28.60;75.30;;;;;;4969139;28;20438;-68
2022/07/12 09:30:50;;;;;;;2.20;1.67;;;28.60;75.20;;;;;;4963723;28;20447;-66
2022/07/12 09:36:06;;;;;;;1.93;1.67;;;29.00;73.50;;;;;;4963213;28;20470;-65
2022/07/12 09:38:38;;;;;;;1.90;1.80;;;29.00;70.90;;;;;;4958606;28;20519;-67
2022/07/12 09:41:07;;;;;;;1.90;1.80;;;29.30;70.30;;;;;;4966656;28;20472;-65
2022/07/12 09:43:33;;;;;;;1.67;1.57;;;29.90;70.10;;;;;;4969619;28;20834;-65
2022/07/12 09:45:59;;;;;;;2.10;1.50;;;30.10;69.00;;;;;;4963136;28;20438;-65
2022/07/12 09:48:27;;;;;;;1.87;1.30;;;29.70;68.60;;;;;;4966122;28;20439;-68
2022/07/12 09:50:54;;;;;;;1.93;1.60;;;29.20;69.30;;;;;;4965816;28;20473;-66
2022/07/12 09:53:43;;;;;;;1.53;1.43;;;28.80;69.40;;;;;;4965440;28;20480;-65
2022/07/12 09:56:12;;;;;;;1.87;1.20;;;29.20;69.00;;;;;;4963596;28;20436;-65
2022/07/12 09:58:43;;;;;;;1.33;1.23;;;30.00;67.40;;;;;;4961124;28;20451;-65
2022/07/12 10:01:10;;;;;;;1.43;1.33;;;30.70;66.30;;;;;;4973095;28;20451;-66
2022/07/12 10:03:38;;;;;;;1.80;1.70;;;31.10;63.40;;;;;;4972409;28;20431;-66
2022/07/12 10:06:04;;;;;;;2.60;1.70;;;31.00;63.50;;;;;;4972283;28;20546;-65
2022/07/12 10:08:30;;;;;;;3.43;1.50;;;31.20;62.70;;;;;;4957554;28;20473;-65
2022/07/12 10:10:57;;;;;;;1.50;1.37;;;31.20;62.00;;;;;;4967078;28;20300;-66
2022/07/12 10:13:23;;;;;;;1.27;1.27;;;32.10;61.60;;;;;;4972005;28;20441;-65
2022/07/12 10:15:50;;;;;;;1.37;1.27;;;33.30;58.20;;;;;;4971763;28;20522;-65
2022/07/12 10:18:18;;;;;;;1.20;1.20;;;33.20;56.20;;;;;;4972286;28;20176;-65
2022/07/12 10:20:45;;;;;;;1.50;1.40;;;32.70;56.40;;;;;;4969013;28;20454;-65
2022/07/12 10:23:25;;;;;;;1.60;1.50;;;32.10;56.70;;;;;;4972292;28;20503;-65
2022/07/12 10:25:51;;;;;;;2.80;1.40;;;31.30;57.50;;;;;;4972208;28;20419;-65
2022/07/12 10:28:16;;;;;;;1.90;1.40;;;32.20;57.70;;;;;;4971857;28;20990;-66
2022/07/12 10:30:47;;;;;;;5.17;1.60;;;32.60;56.60;;;;;;4968844;28;20283;-66
2022/07/12 10:33:19;;;;;;;4.40;1.60;;;31.30;58.00;;;;;;4968780;28;20259;-66
2022/07/12 10:35:59;;;;;;;1.60;1.50;;;32.20;57.40;;;;;;4953253;28;20417;-66
2022/07/12 10:38:25;;;;;;;1.10;1.10;;;33.10;55.90;;;;;;4959164;28;20427;-66
2022/07/12 10:40:51;;;;;;;1.43;1.33;;;33.20;55.10;;;;;;4971722;28;20447;-66
2022/07/12 10:46:23;;;;;;;2.23;1.30;;;33.20;54.60;;;;;;4962293;28;20478;-65
2022/07/12 10:48:49;;;;;;;1.87;1.47;;;35.60;52.30;;;;;;4959825;28;20546;-65
2022/07/12 10:51:21;;;;;;;1.47;1.37;;;35.50;51.90;;;;;;4968713;28;20554;-66
2022/07/12 10:53:48;;;;;;;2.20;1.53;;;36.80;49.60;;;;;;4957812;28;20180;-65
2022/07/12 10:56:21;;;;;;;2.97;1.23;;;38.20;47.90;;;;;;4962086;28;20471;-65
2022/07/12 10:58:53;;;;;;;1.30;1.23;;;39.30;44.90;;;;;;4964129;28;21347;-66
2022/07/12 11:01:37;;;;;;;1.20;1.20;;;38.20;43.50;;;;;;4960405;28;20460;-66
2022/07/12 11:04:07;;;;;;;1.30;1.20;;;37.30;42.80;;;;;;4962963;28;20487;-66
2022/07/12 11:06:36;;;;;;;1.50;1.40;;;35.70;45.20;;;;;;4972448;28;20908;-66
2022/07/12 11:09:09;;;;;;;2.07;1.97;;;36.40;45.60;;;;;;4967380;28;20494;-66
2022/07/12 11:11:49;;;;;;;1.87;1.67;;;37.40;43.40;;;;;;4975312;28;20462;-66
2022/07/12 11:14:26;;;;;;;2.10;1.27;;;39.10;42.20;;;;;;4975563;28;20490;-66
2022/07/12 11:16:54;;;;;;;2.20;1.17;;;38.80;41.60;;;;;;4974473;28;20434;-66
2022/07/12 11:19:24;;;;;;;2.97;1.20;;;38.50;41.60;;;;;;4970215;28;20542;-66
2022/07/12 11:21:55;;;;;;;1.90;1.57;;;38.80;41.30;;;;;;4974002;28;20467;-66
2022/07/12 11:24:22;;;;;;;1.20;1.10;;;39.80;40.00;;;;;;4975145;28;20439;-66
2022/07/12 11:26:48;;;;;;;1.30;1.30;;;40.50;39.10;;;;;;4973990;28;20430;-66
2022/07/12 11:29:14;;;;;;;5.20;4.80;;;40.70;38.20;;;;;;4972624;28;20435;-66
2022/07/12 11:31:40;;;;;;;1.27;1.27;;;40.80;37.90;;;;;;4974403;28;20736;-66
2022/07/12 11:34:05;;;;;;;1.17;1.17;;;40.80;37.00;;;;;;4974968;28;20552;-66
2022/07/12 11:36:32;;;;;;;1.50;1.40;;;40.80;36.70;;;;;;4975046;28;20255;-66
2022/07/12 11:38:58;;;;;;;1.20;1.20;;;42.00;35.60;;;;;;4971315;28;20273;-66
2022/07/12 11:41:24;;;;;;;1.20;1.20;;;43.10;34.80;;;;;;4974554;28;20956;-66
2022/07/12 11:43:50;;;;;;;1.53;1.43;;;43.90;35.30;;;;;;4974399;28;20168;-66
2022/07/12 11:46:15;;;;;;;1.10;1.10;;;44.30;34.30;;;;;;4975518;28;20495;-66
2022/07/12 11:48:42;;;;;;;2.30;1.33;;;43.80;33.60;;;;;;4953346;28;20246;-66
2022/07/12 11:51:10;;;;;;;1.57;1.20;;;42.70;33.90;;;;;;4974268;28;20220;-66
2022/07/12 11:53:37;;;;;;;1.77;1.63;;;41.40;34.40;;;;;;4975243;28;20434;-66
2022/07/12 11:56:05;;;;;;;3.03;1.27;;;42.90;34.10;;;;;;4974140;28;20430;-66
2022/07/12 11:58:37;;;;;;;1.40;1.40;;;43.00;33.70;;;;;;4973312;28;20418;-66
2022/07/12 12:01:03;;;;;;;1.50;1.50;;;42.70;33.20;;;;;;4973741;28;20509;-66
2022/07/12 12:03:29;;;;;;;3.60;1.50;;;42.90;33.10;;;;;;4975046;28;21048;-66
2022/07/12 12:05:56;;;;;;;1.57;1.20;;;43.30;33.00;;;;;;4975277;28;20226;-66
2022/07/12 12:08:23;;;;;;;1.10;1.00;;;43.40;31.90;;;;;;4973604;28;20331;-66
2022/07/12 12:10:59;;;;;;;1.07;1.07;;;43.40;32.00;;;;;;4953778;28;20474;-66
2022/07/12 12:13:27;;;;;;;1.30;1.30;;;44.30;30.90;;;;;;4974687;28;20423;-66
2022/07/12 12:16:00;;;;;;;1.60;1.50;;;44.70;31.10;;;;;;4973882;28;20435;-66
2022/07/12 12:18:34;;;;;;;1.53;1.43;;;45.30;30.60;;;;;;4973683;28;20415;-66
2022/07/12 12:21:07;;;;;;;1.23;1.13;;;43.30;30.10;;;;;;4971543;28;20458;-66
2022/07/12 12:23:34;;;;;;;1.33;1.23;;;40.20;33.00;;;;;;4975133;28;20439;-66
2022/07/12 12:26:22;;;;;;;1.33;1.03;;;40.10;33.00;;;;;;4974915;28;20424;-66
2022/07/12 12:28:53;;;;;;;1.20;1.20;;;39.80;33.30;;;;;;4962190;28;20916;-66
2022/07/12 12:31:23;;;;;;;1.10;1.10;;;39.40;33.50;;;;;;4971330;28;21093;-66
2022/07/12 12:33:53;;;;;;;1.20;1.20;;;40.00;33.30;;;;;;4975442;28;21126;-66
2022/07/12 12:36:23;;;;;;;1.20;1.07;;;40.90;32.30;;;;;;4970518;28;20485;-66
2022/07/12 12:38:50;;;;;;;1.37;1.37;;;42.30;31.70;;;;;;4969135;28;20546;-66
2022/07/12 12:41:17;;;;;;;1.47;1.37;;;41.40;31.60;;;;;;4973195;28;20480;-66
2022/07/12 12:43:43;;;;;;;1.20;1.10;;;40.70;31.70;;;;;;4974870;28;20430;-66
2022/07/12 12:46:09;;;;;;;1.00;1.00;;;38.10;34.00;;;;;;4973894;28;20515;-66
2022/07/12 12:48:35;;;;;;;2.97;0.80;;;38.20;33.80;;;;;;4971389;28;20451;-66
2022/07/12 12:51:06;;;;;;;1.20;1.20;;;37.90;33.70;;;;;;4972470;28;20456;-66
2022/07/12 12:53:32;;;;;;;4.03;1.40;;;39.10;33.40;;;;;;4973071;28;20519;-66
2022/07/12 12:55:58;;;;;;;2.77;2.10;;;40.40;32.50;;;;;;4974267;28;20534;-66
2022/07/12 12:58:25;;;;;;;1.87;1.77;;;41.00;31.10;;;;;;4972713;28;20546;-66